Glen Flora, Texas
Current Conditions -  °F | °C
As of 12:35 AM on Friday 31 Oct 2014 (Local Time) from KARM Reporting Station
Clear Clear  
Wind Chill: 61°   Ceiling: Unl
Heat Index: 61°   Visibility: 10mi
Dew Point: 57°   Wind: 0mph
Humidity: 86%   Direction: NA
Pressure: 30.11"   Gusts: NA
Location:  29.35°N, 96.19°W
Report Text: KARM 310535Z AUTO 00000KT 10SM CLR 16/14 A3011 RMK AO2 T01620139
Loading
Personal Weather Stations






























Interactive Weather Map
Tropical Storm Tracking
New forecast layout! Learn more

10-Day Weather Forecast

Advertisements
Track Severe Weather on mobile